Time;durP1;ratioP1;P1;durP2;ratioP2;P2;SDS_P1;SDS_P2;PMS_P1;PMS_P2;Temp;Humidity;BMP_temperature;BMP_pressure;BME280_temperature;BME280_humidity;BME280_pressure;Samples;Min_cycle;Max_cycle;Signal;HPM_P1;HPM_P2
2023/04/12 00:03:29;;;;;;;;;;;;;;;10.21;82.56;100510.09;10451649;28;19971;-68
2023/04/12 00:08:32;;;;;;;;;;;;;;;9.68;87.64;100499.25;10456523;28;19925;-66
2023/04/12 00:13:34;;;;;;;;;;;;;;;9.57;90.12;100483.38;10457092;28;19929;-68
2023/04/12 00:18:36;;;;;;;;;;;;;;;9.30;98.61;100469.19;10455463;28;20437;-69
2023/04/12 00:23:38;;;;;;;;;;;;;;;9.36;93.91;100454.91;10452505;28;19925;-66
2023/04/12 00:28:41;;;;;;;;;;;;;;;9.25;98.81;100446.88;10456168;28;19925;-66
2023/04/12 00:33:43;;;;;;;;;;;;;;;9.26;100.00;100441.56;10444371;28;20319;-66
2023/04/12 00:38:46;;;;;;;;;;;;;;;9.29;99.54;100425.69;10463416;28;19936;-66
2023/04/12 00:43:48;;;;;;;;;;;;;;;9.06;100.00;100406.16;10463229;28;20008;-65
2023/04/12 00:48:50;;;;;;;;;;;;;;;9.07;100.00;100392.13;10462533;28;19932;-66
2023/04/12 00:53:53;;;;;;;;;;;;;;;9.24;100.00;100379.88;10463523;28;19925;-66
2023/04/12 00:58:56;;;;;;;;;;;;;;;8.85;100.00;100370.81;10445578;28;20391;-66
2023/04/12 01:04:03;;;;;;;;;;;;;;;8.82;100.00;100356.16;10442568;28;19970;-66
2023/04/12 01:09:15;;;;;;;;;;;;;;;8.69;100.00;100350.81;10462868;28;19929;-66
2023/04/12 01:14:40;;;;;;;;;;;;;;;8.70;100.00;100349.03;10461497;28;19925;-66
2023/04/12 01:20:21;;;;;;;;;;;;;;;8.84;100.00;100337.78;10454466;28;20316;-66
2023/04/12 01:25:28;;;;;;;;;;;;;;;9.08;100.00;100309.44;10334676;28;20274;-66
2023/04/12 01:30:30;;;;;;;;;;;;;;;8.81;100.00;100294.44;10427928;28;19970;-66
2023/04/12 01:35:33;;;;;;;;;;;;;;;9.15;100.00;100289.03;10443332;28;20281;-66
2023/04/12 01:40:39;;;;;;;;;;;;;;;8.72;100.00;100276.69;10460725;28;19931;-66
2023/04/12 01:45:41;;;;;;;;;;;;;;;8.84;100.00;100254.25;10458436;28;19925;-66
2023/04/12 01:50:49;;;;;;;;;;;;;;;8.80;100.00;100251.00;10461181;28;20292;-66
2023/04/12 01:55:51;;;;;;;;;;;;;;;8.88;100.00;100240.09;10443482;28;19925;-66
2023/04/12 02:00:53;;;;;;;;;;;;;;;8.79;100.00;100215.38;10459123;28;19924;-66
2023/04/12 02:05:56;;;;;;;;;;;;;;;8.73;100.00;100206.13;10441373;28;20015;-66
2023/04/12 02:10:58;;;;;;;;;;;;;;;8.53;100.00;100188.22;10441823;28;19970;-66
2023/04/12 02:16:01;;;;;;;;;;;;;;;8.25;100.00;100191.53;10460847;28;19928;-66
2023/04/12 02:21:03;;;;;;;;;;;;;;;8.46;100.00;100172.06;10459465;28;19978;-66
2023/04/12 02:26:06;;;;;;;;;;;;;;;8.38;100.00;100153.38;10458367;28;19929;-66
2023/04/12 02:31:08;;;;;;;;;;;;;;;8.01;100.00;100137.25;10460252;28;19924;-66
2023/04/12 02:36:10;;;;;;;;;;;;;;;8.54;100.00;100120.28;10458709;28;19987;-66
2023/04/12 02:41:16;;;;;;;;;;;;;;;8.25;100.00;100110.69;10459073;28;19951;-65
2023/04/12 02:46:20;;;;;;;;;;;;;;;8.45;100.00;100093.91;10439228;28;19929;-66
2023/04/12 02:51:22;;;;;;;;;;;;;;;8.31;100.00;100077.28;10458074;28;19928;-67
2023/04/12 02:56:25;;;;;;;;;;;;;;;8.16;100.00;100058.16;10458368;28;19928;-66
2023/04/12 03:01:27;;;;;;;;;;;;;;;8.21;100.00;100042.25;10441460;28;19925;-66
2023/04/12 03:06:30;;;;;;;;;;;;;;;8.19;100.00;100028.47;10455482;28;19924;-66
2023/04/12 03:11:33;;;;;;;;;;;;;;;8.28;100.00;100020.06;10458715;28;19924;-65
2023/04/12 03:16:35;;;;;;;;;;;;;;;8.26;100.00;100002.84;10457829;28;20341;-66
2023/04/12 03:21:37;;;;;;;;;;;;;;;8.19;100.00;99987.56;10457738;28;19928;-66
2023/04/12 03:26:41;;;;;;;;;;;;;;;8.35;100.00;99979.66;10456585;28;19928;-66
2023/04/12 03:31:43;;;;;;;;;;;;;;;8.00;100.00;99963.53;10439042;28;20322;-66
2023/04/12 03:36:45;;;;;;;;;;;;;;;8.31;100.00;99964.28;10457242;28;20334;-66
2023/04/12 03:41:47;;;;;;;;;;;;;;;8.13;100.00;99941.00;10457156;28;19925;-66
2023/04/12 03:46:50;;;;;;;;;;;;;;;8.27;100.00;99941.91;10436721;28;19925;-67
2023/04/12 03:51:52;;;;;;;;;;;;;;;8.35;100.00;99930.13;10456705;28;19925;-68
2023/04/12 03:56:55;;;;;;;;;;;;;;;8.20;100.00;99933.63;10456670;28;19928;-66
2023/04/12 04:01:58;;;;;;;;;;;;;;;8.07;100.00;99928.34;10455240;28;19931;-66
2023/04/12 04:07:01;;;;;;;;;;;;;;;8.23;100.00;99907.38;10457616;28;19971;-67
2023/04/12 04:12:03;;;;;;;;;;;;;;;8.26;100.00;99911.56;10465736;28;19932;-67
2023/04/12 04:17:05;;;;;;;;;;;;;;;8.29;100.00;99906.19;10465340;28;19928;-66
2023/04/12 04:22:08;;;;;;;;;;;;;;;7.90;100.00;99890.28;10464310;28;19951;-66
2023/04/12 04:27:14;;;;;;;;;;;;;;;8.09;100.00;99883.94;10462846;28;20393;-66
2023/04/12 04:32:16;;;;;;;;;;;;;;;8.03;100.00;99872.09;10463941;28;19931;-66
2023/04/12 04:37:20;;;;;;;;;;;;;;;8.12;100.00;99871.56;10464028;28;19924;-66
2023/04/12 04:42:23;;;;;;;;;;;;;;;8.15;100.00;99862.69;10462367;28;19978;-67
2023/04/12 04:47:29;;;;;;;;;;;;;;;7.74;100.00;99861.69;10462973;28;19933;-67
2023/04/12 04:52:31;;;;;;;;;;;;;;;7.97;100.00;99855.09;10463152;28;20011;-66
2023/04/12 04:57:34;;;;;;;;;;;;;;;7.83;100.00;99847.25;10445630;28;20372;-67
2023/04/12 05:02:41;;;;;;;;;;;;;;;7.80;100.00;99844.84;10462284;28;19982;-66
2023/04/12 05:07:44;;;;;;;;;;;;;;;7.74;100.00;99840.84;10445266;28;19925;-66
2023/04/12 05:12:46;;;;;;;;;;;;;;;7.94;100.00;99844.84;10461713;28;19990;-67
2023/04/12 05:17:48;;;;;;;;;;;;;;;7.97;100.00;99828.19;10463049;28;19928;-67
2023/04/12 05:22:50;;;;;;;;;;;;;;;8.14;100.00;99814.91;10461496;28;19932;-67
2023/04/12 05:27:53;;;;;;;;;;;;;;;8.27;100.00;99811.53;10461325;28;19932;-67
2023/04/12 05:32:55;;;;;;;;;;;;;;;8.03;100.00;99806.94;10459350;28;19925;-67
2023/04/12 05:37:57;;;;;;;;;;;;;;;8.04;100.00;99792.97;10462080;28;19929;-67
2023/04/12 05:43:00;;;;;;;;;;;;;;;7.83;100.00;99787.31;10460281;28;20368;-67
2023/04/12 05:48:02;;;;;;;;;;;;;;;8.11;100.00;99793.44;10441691;28;19987;-67
2023/04/12 05:53:05;;;;;;;;;;;;;;;8.07;100.00;99784.09;10460075;28;19925;-67
2023/04/12 05:58:07;;;;;;;;;;;;;;;7.96;100.00;99790.00;10459467;28;20429;-67
2023/04/12 06:03:10;;;;;;;;;;;;;;;7.75;100.00;99785.22;10459184;28;19925;-67
2023/04/12 06:08:13;;;;;;;;;;;;;;;8.26;100.00;99784.63;10459827;28;20387;-66
2023/04/12 06:13:15;;;;;;;;;;;;;;;8.44;100.00;99771.34;10441991;28;19963;-66
2023/04/12 06:18:18;;;;;;;;;;;;;;;8.27;100.00;99761.97;10460267;28;20338;-66
2023/04/12 06:23:20;;;;;;;;;;;;;;;8.05;100.00;99772.94;10458473;28;19926;-66
2023/04/12 06:28:22;;;;;;;;;;;;;;;8.09;100.00;99771.84;10460012;28;19929;-66
2023/04/12 06:33:25;;;;;;;;;;;;;;;8.04;100.00;99763.47;10456580;28;19929;-66
2023/04/12 06:38:27;;;;;;;;;;;;;;;8.06;100.00;99762.44;10459394;28;19925;-66
2023/04/12 06:43:29;;;;;;;;;;;;;;;8.39;100.00;99753.38;10439454;28;19925;-66
2023/04/12 06:48:31;;;;;;;;;;;;;;;8.31;100.00;99750.44;10458319;28;19932;-67
2023/04/12 06:53:34;;;;;;;;;;;;;;;8.28;100.00;99742.81;10458675;28;19925;-67
2023/04/12 06:58:36;;;;;;;;;;;;;;;8.30;100.00;99738.31;10458558;28;20284;-67
2023/04/12 07:03:39;;;;;;;;;;;;;;;8.51;100.00;99725.69;10453045;28;19948;-67
2023/04/12 07:08:41;;;;;;;;;;;;;;;8.70;100.00;99717.47;10458846;28;19924;-66
2023/04/12 07:13:44;;;;;;;;;;;;;;;8.87;100.00;99709.34;10456022;28;20376;-67
2023/04/12 07:18:46;;;;;;;;;;;;;;;9.10;100.00;99715.59;10458464;28;19929;-67
2023/04/12 07:23:50;;;;;;;;;;;;;;;9.24;100.00;99714.66;10456780;28;19924;-67
2023/04/12 07:28:53;;;;;;;;;;;;;;;8.78;100.00;99719.59;10454291;28;19979;-67
2023/04/12 07:33:55;;;;;;;;;;;;;;;8.80;100.00;99726.34;10457873;28;19924;-67
2023/04/12 07:38:58;;;;;;;;;;;;;;;8.91;100.00;99723.03;10457097;28;20325;-67
2023/04/12 07:44:00;;;;;;;;;;;;;;;9.32;100.00;99735.03;10455285;28;20019;-67
2023/04/12 07:49:02;;;;;;;;;;;;;;;9.23;100.00;99730.44;10455826;28;19924;-67
2023/04/12 07:54:05;;;;;;;;;;;;;;;9.34;100.00;99725.31;10457433;28;19925;-67
2023/04/12 07:59:07;;;;;;;;;;;;;;;9.74;100.00;99719.06;10453720;28;19929;-67
2023/04/12 08:04:09;;;;;;;;;;;;;;;9.62;100.00;99713.75;10457362;28;19929;-65
2023/04/12 08:09:13;;;;;;;;;;;;;;;9.81;100.00;99722.91;10458226;28;19956;-65
2023/04/12 08:14:15;;;;;;;;;;;;;;;9.74;100.00;99732.97;10456460;28;20425;-65
2023/04/12 08:19:19;;;;;;;;;;;;;;;9.52;100.00;99736.25;10456969;28;20020;-65
2023/04/12 08:24:21;;;;;;;;;;;;;;;9.58;100.00;99732.38;10436871;28;20327;-65
2023/04/12 08:29:23;;;;;;;;;;;;;;;10.18;100.00;99731.56;10455664;28;19971;-65
2023/04/12 08:34:25;;;;;;;;;;;;;;;9.83;100.00;99714.03;10454991;28;20363;-65
2023/04/12 08:39:27;;;;;;;;;;;;;;;10.07;100.00;99722.81;10453433;28;19936;-66
2023/04/12 08:44:37;;;;;;;;;;;;;;;10.23;100.00;99715.53;10456322;28;19929;-66
2023/04/12 08:49:39;;;;;;;;;;;;;;;10.83;100.00;99711.13;10437916;28;19979;-66
2023/04/12 08:54:42;;;;;;;;;;;;;;;10.87;100.00;99712.53;10440443;28;19925;-66
2023/04/12 08:59:44;;;;;;;;;;;;;;;11.04;100.00;99713.03;10406411;28;19932;-66
2023/04/12 09:04:47;;;;;;;;;;;;;;;11.15;100.00;99716.50;10423378;28;19983;-66
2023/04/12 09:09:50;;;;;;;;;;;;;;;10.85;100.00;99718.84;10420178;28;20011;-66
2023/04/12 09:15:12;;;;;;;;;;;;;;;11.27;100.00;99706.03;10461846;28;19975;-66
2023/04/12 09:20:17;;;;;;;;;;;;;;;11.26;100.00;99697.34;10445465;28;19925;-66
2023/04/12 09:25:39;;;;;;;;;;;;;;;11.62;100.00;99694.59;10445580;28;19932;-66
2023/04/12 09:30:42;;;;;;;;;;;;;;;11.92;93.74;99678.22;10462903;28;20323;-67
2023/04/12 09:35:44;;;;;;;;;;;;;;;12.56;93.38;99673.88;10461927;28;20287;-67
2023/04/12 09:40:47;;;;;;;;;;;;;;;13.75;89.16;99665.41;10445061;28;20432;-66
2023/04/12 09:45:49;;;;;;;;;;;;;;;13.67;84.49;99662.59;10462885;28;19932;-67
2023/04/12 09:50:57;;;;;;;;;;;;;;;12.08;87.82;99664.66;10445416;28;19932;-67
2023/04/12 09:55:59;;;;;;;;;;;;;;;13.32;90.70;99660.44;10462542;28;20364;-67
2023/04/12 10:01:02;;;;;;;;;;;;;;;14.13;97.64;99662.91;10445252;28;19931;-67
2023/04/12 10:06:05;;;;;;;;;;;;;;;16.66;89.37;99657.34;10461276;28;20264;-67
2023/04/12 10:11:08;;;;;;;;;;;;;;;16.27;80.04;99653.31;10444163;28;20398;-67
2023/04/12 10:16:10;;;;;;;;;;;;;;;15.05;78.80;99654.44;10461405;28;19925;-67
2023/04/12 10:21:12;;;;;;;;;;;;;;;15.34;85.52;99650.03;10462129;28;20016;-67
2023/04/12 10:26:15;;;;;;;;;;;;;;;14.29;80.64;99638.69;10461761;28;19940;-67
2023/04/12 10:31:27;;;;;;;;;;;;;;;14.25;82.73;99647.81;10443689;28;19933;-67
2023/04/12 10:36:48;;;;;;;;;;;;;;;14.42;83.48;99644.47;10442934;28;20299;-67
2023/04/12 10:42:09;;;;;;;;;;;;;;;14.83;78.63;99639.84;10459499;28;19925;-67
2023/04/12 10:47:12;;;;;;;;;;;;;;;14.57;79.28;99636.13;10459206;28;20321;-68
2023/04/12 10:52:14;;;;;;;;;;;;;;;14.58;79.39;99650.97;10459601;28;20280;-68
2023/04/12 10:57:35;;;;;;;;;;;;;;;17.13;71.46;99627.06;10458658;28;20273;-68
2023/04/12 11:02:58;;;;;;;;;;;;;;;15.34;74.01;99634.22;10499451;22;19924;-68
2023/04/12 11:08:01;;;;;;;;;;;;;;;15.42;74.91;99627.22;10499717;28;19924;-68
2023/04/12 11:13:07;;;;;;;;;;;;;;;13.18;72.09;99633.53;10499020;28;19931;-68
2023/04/12 11:18:10;;;;;;;;;;;;;;;14.22;74.39;99646.31;10498652;28;20011;-68
2023/04/12 11:23:12;;;;;;;;;;;;;;;13.91;75.97;99646.44;10498018;28;19931;-68
2023/04/12 11:28:18;;;;;;;;;;;;;;;13.83;73.78;99646.28;10498553;28;19924;-68
2023/04/12 11:33:33;;;;;;;;;;;;;;;14.35;72.04;99643.38;10498542;28;19925;-67
2023/04/12 11:38:36;;;;;;;;;;;;;;;14.89;74.71;99641.06;10499400;28;19924;-68
2023/04/12 11:43:39;;;;;;;;;;;;;;;14.00;70.95;99642.13;10499270;28;19928;-68
2023/04/12 11:48:43;;;;;;;;;;;;;;;14.53;73.33;99638.22;10499157;28;19931;-68
2023/04/12 11:53:46;;;;;;;;;;;;;;;14.07;71.17;99634.50;10497262;28;19950;-68
2023/04/12 11:58:48;;;;;;;;;;;;;;;13.27;73.51;99645.03;10497347;28;20398;-68
2023/04/12 12:03:50;;;;;;;;;;;;;;;12.84;69.91;99648.72;10497384;28;20318;-68
2023/04/12 12:08:54;;;;;;;;;;;;;;;12.56;74.50;99658.13;10498740;28;19978;-68
2023/04/12 12:13:56;;;;;;;;;;;;;;;12.51;74.64;99657.66;10497548;28;19931;-68
2023/04/12 12:19:02;;;;;;;;;;;;;;;12.69;72.99;99657.91;10496723;28;19929;-68
2023/04/12 12:24:04;;;;;;;;;;;;;;;12.89;70.81;99654.41;10497265;28;19974;-68
2023/04/12 12:29:08;;;;;;;;;;;;;;;12.36;70.40;99663.22;10502328;28;19924;-68
2023/04/12 12:34:12;;;;;;;;;;;;;;;15.50;71.99;99654.66;10504734;28;19948;-68
2023/04/12 12:39:14;;;;;;;;;;;;;;;16.54;63.54;99646.22;10505530;28;19925;-68
2023/04/12 12:44:16;;;;;;;;;;;;;;;15.36;65.77;99653.34;10506099;28;19925;-68
2023/04/12 12:49:19;;;;;;;;;;;;;;;15.95;62.42;99659.97;10505865;28;19928;-69
2023/04/12 12:54:21;;;;;;;;;;;;;;;15.78;63.96;99656.34;10505785;28;19930;-68
2023/04/12 12:59:41;;;;;;;;;;;;;;;14.53;66.30;99648.75;10504621;28;20255;-68
2023/04/12 13:04:43;;;;;;;;;;;;;;;13.58;66.55;99652.88;10505283;28;19931;-68
2023/04/12 13:09:45;;;;;;;;;;;;;;;13.54;70.05;99675.19;10504996;28;19968;-68
2023/04/12 13:14:47;;;;;;;;;;;;;;;11.71;73.59;99694.66;10504277;28;19931;-68
2023/04/12 13:19:50;;;;;;;;;;;;;;;10.55;77.30;99720.19;10504125;28;19924;-68
2023/04/12 13:24:54;;;;;;;;;;;;;;;10.92;79.22;99702.53;10504568;28;19924;-68
2023/04/12 13:29:56;;;;;;;;;;;;;;;10.82;76.46;99706.00;10503761;28;19925;-68
2023/04/12 13:34:58;;;;;;;;;;;;;;;10.94;79.99;99705.91;10504158;28;19928;-68
2023/04/12 13:40:00;;;;;;;;;;;;;;;10.88;78.90;99695.88;10499939;28;20329;-68
2023/04/12 13:45:04;;;;;;;;;;;;;;;11.72;79.88;99692.88;10503582;28;19924;-68
2023/04/12 13:50:06;;;;;;;;;;;;;;;12.20;78.08;99692.50;10503616;28;19928;-68
2023/04/12 13:55:09;;;;;;;;;;;;;;;12.14;75.65;99692.19;10497444;28;20494;-68
2023/04/12 14:00:11;;;;;;;;;;;;;;;11.41;78.12;99697.09;10482643;28;20265;-68
2023/04/12 14:05:14;;;;;;;;;;;;;;;11.55;78.02;99701.25;10499575;28;19932;-68
2023/04/12 14:10:16;;;;;;;;;;;;;;;11.01;77.06;99693.16;10499762;28;19936;-68
2023/04/12 14:15:18;;;;;;;;;;;;;;;11.10;76.78;99695.06;10494435;28;19986;-65
2023/04/12 14:20:22;;;;;;;;;;;;;;;11.02;74.60;99697.44;10492990;28;20327;-68
2023/04/12 14:25:24;;;;;;;;;;;;;;;11.31;75.55;99708.31;10496798;28;19936;-69
2023/04/12 14:30:27;;;;;;;;;;;;;;;11.37;75.12;99706.16;10497794;28;20034;-68
2023/04/12 14:35:29;;;;;;;;;;;;;;;11.41;75.56;99697.91;10489564;28;19951;-68
2023/04/12 14:40:32;;;;;;;;;;;;;;;10.86;75.23;99708.28;10493236;28;19924;-69
2023/04/12 14:45:35;;;;;;;;;;;;;;;11.38;78.51;99702.56;10495000;28;19931;-69
2023/04/12 14:50:38;;;;;;;;;;;;;;;11.57;74.06;99720.31;10478818;28;19925;-69
2023/04/12 14:55:40;;;;;;;;;;;;;;;10.97;77.26;99715.28;10493109;28;19924;-68
2023/04/12 15:00:42;;;;;;;;;;;;;;;10.76;77.25;99726.44;10486808;28;19950;-69
2023/04/12 15:05:45;;;;;;;;;;;;;;;10.54;78.18;99723.75;10491276;28;20334;-68
2023/04/12 15:10:48;;;;;;;;;;;;;;;10.82;78.77;99742.66;10466897;28;19924;-70
2023/04/12 15:15:50;;;;;;;;;;;;;;;10.52;78.51;99762.28;10465783;28;19925;-68
2023/04/12 15:20:53;;;;;;;;;;;;;;;10.10;78.13;99780.13;10469832;28;19932;-69
2023/04/12 15:25:57;;;;;;;;;;;;;;;9.67;82.14;99828.44;10499080;28;19925;-68
2023/04/12 15:31:00;;;;;;;;;;;;;;;7.98;91.08;99879.38;10491347;28;20333;-67
2023/04/12 15:36:02;;;;;;;;;;;;;;;7.85;100.00;99802.88;10483435;28;19924;-67
2023/04/12 15:41:07;;;;;;;;;;;;;;;7.94;100.00;99802.31;10490972;28;20225;-66
2023/04/12 15:46:10;;;;;;;;;;;;;;;8.00;100.00;99787.13;10497225;28;19928;-68
2023/04/12 15:51:12;;;;;;;;;;;;;;;8.27;100.00;99778.50;10496490;28;19928;-69
2023/04/12 15:56:18;;;;;;;;;;;;;;;8.31;100.00;99782.56;10497737;28;19924;-69
2023/04/12 16:01:21;;;;;;;;;;;;;;;8.59;100.00;99778.22;10494497;28;19924;-67
2023/04/12 16:06:24;;;;;;;;;;;;;;;8.40;100.00;99782.91;10495815;28;20288;-67
2023/04/12 16:11:26;;;;;;;;;;;;;;;8.55;100.00;99767.13;10494045;28;20023;-67
2023/04/12 16:16:29;;;;;;;;;;;;;;;8.28;100.00;99771.50;10478562;28;19974;-67
2023/04/12 16:21:32;;;;;;;;;;;;;;;8.41;100.00;99776.75;10495622;28;19975;-67
2023/04/12 16:26:34;;;;;;;;;;;;;;;9.71;100.00;99761.09;10486659;28;20444;-68
2023/04/12 16:31:37;;;;;;;;;;;;;;;10.94;94.01;99733.84;10468497;28;19990;-67
2023/04/12 16:36:41;;;;;;;;;;;;;;;11.13;91.11;99723.66;10446387;28;19936;-67
2023/04/12 16:41:45;;;;;;;;;;;;;;;11.70;86.26;99723.63;10450104;28;19951;-68
2023/04/12 16:46:48;;;;;;;;;;;;;;;10.58;87.02;99731.28;10473677;28;20118;-67
2023/04/12 16:51:50;;;;;;;;;;;;;;;9.64;91.38;99724.13;10493969;28;19933;-67
2023/04/12 16:56:52;;;;;;;;;;;;;;;9.71;95.79;99727.94;10491310;28;19931;-68
2023/04/12 17:01:56;;;;;;;;;;;;;;;10.58;93.46;99731.28;10494585;28;19924;-68
2023/04/12 17:06:59;;;;;;;;;;;;;;;10.18;92.96;99735.97;10489709;28;20465;-69
2023/04/12 17:12:01;;;;;;;;;;;;;;;10.14;92.92;99734.53;10492658;28;19924;-64
2023/04/12 17:17:03;;;;;;;;;;;;;;;10.37;90.64;99732.84;10504782;28;19928;-65
2023/04/12 17:22:07;;;;;;;;;;;;;;;10.36;90.35;99742.50;10504784;28;19925;-65
2023/04/12 17:27:09;;;;;;;;;;;;;;;9.33;94.94;99735.84;10503143;28;19998;-65
2023/04/12 17:32:12;;;;;;;;;;;;;;;9.30;98.08;99731.69;10500823;28;19925;-65
2023/04/12 17:37:14;;;;;;;;;;;;;;;9.04;100.00;99730.84;10503186;28;19925;-65
2023/04/12 17:42:17;;;;;;;;;;;;;;;8.97;100.00;99738.28;10498452;28;20350;-65
2023/04/12 17:47:21;;;;;;;;;;;;;;;9.01;100.00;99734.53;10498932;28;19982;-65
2023/04/12 17:52:23;;;;;;;;;;;;;;;8.68;100.00;99729.78;10502049;28;19924;-65
2023/04/12 17:57:26;;;;;;;;;;;;;;;8.40;100.00;99744.59;10503459;28;19931;-65
2023/04/12 18:02:28;;;;;;;;;;;;;;;8.30;100.00;99749.56;10502515;28;19978;-65
2023/04/12 18:07:31;;;;;;;;;;;;;;;8.49;100.00;99732.75;10502185;28;20379;-65
2023/04/12 18:12:33;;;;;;;;;;;;;;;8.16;100.00;99752.25;10502754;28;19924;-64
2023/04/12 18:17:36;;;;;;;;;;;;;;;8.03;100.00;99743.53;10502071;28;19924;-65
2023/04/12 18:22:38;;;;;;;;;;;;;;;7.83;100.00;99740.41;10501780;28;19932;-64
2023/04/12 18:27:40;;;;;;;;;;;;;;;7.67;100.00;99747.53;10500569;28;19924;-66
2023/04/12 18:32:43;;;;;;;;;;;;;;;7.59;100.00;99738.41;10501307;28;19932;-64
2023/04/12 18:37:45;;;;;;;;;;;;;;;7.22;100.00;99740.66;10499925;28;19925;-64
2023/04/12 18:42:47;;;;;;;;;;;;;;;7.29;100.00;99745.50;10500465;28;19931;-65
2023/04/12 18:47:50;;;;;;;;;;;;;;;7.41;100.00;99735.19;10501303;28;19929;-64
2023/04/12 18:52:52;;;;;;;;;;;;;;;7.03;100.00;99733.13;10500010;28;19925;-65
2023/04/12 18:57:55;;;;;;;;;;;;;;;7.02;100.00;99728.81;10499888;28;19931;-65
2023/04/12 19:02:57;;;;;;;;;;;;;;;6.93;100.00;99739.81;10499191;28;19970;-65
2023/04/12 19:07:59;;;;;;;;;;;;;;;7.05;100.00;99733.84;10500627;28;19928;-65
2023/04/12 19:13:02;;;;;;;;;;;;;;;7.16;100.00;99745.38;10500420;28;19931;-65
2023/04/12 19:18:04;;;;;;;;;;;;;;;7.05;100.00;99744.28;10495252;28;19932;-64
2023/04/12 19:23:07;;;;;;;;;;;;;;;6.95;100.00;99753.56;10499064;28;19978;-65
2023/04/12 19:28:10;;;;;;;;;;;;;;;6.85;100.00;99745.44;10498221;28;20411;-65
2023/04/12 19:33:12;;;;;;;;;;;;;;;6.88;100.00;99742.66;10496937;28;20337;-64
2023/04/12 19:38:14;;;;;;;;;;;;;;;6.83;100.00;99730.88;10497693;28;20322;-64
2023/04/12 19:43:17;;;;;;;;;;;;;;;6.83;100.00;99728.25;10498773;28;19924;-64
2023/04/12 19:48:19;;;;;;;;;;;;;;;6.61;100.00;99732.13;10499273;28;19935;-64
2023/04/12 19:53:23;;;;;;;;;;;;;;;6.70;100.00;99733.34;10496787;28;20457;-65
2023/04/12 19:58:25;;;;;;;;;;;;;;;6.63;100.00;99732.84;10498295;28;19925;-64
2023/04/12 20:03:27;;;;;;;;;;;;;;;6.42;100.00;99721.09;10498192;28;19978;-64
2023/04/12 20:08:30;;;;;;;;;;;;;;;6.45;100.00;99719.13;10499213;28;19929;-64
2023/04/12 20:13:33;;;;;;;;;;;;;;;6.40;100.00;99725.53;10497035;28;20737;-65
2023/04/12 20:18:35;;;;;;;;;;;;;;;6.54;100.00;99709.13;10496753;28;19925;-64
2023/04/12 20:23:37;;;;;;;;;;;;;;;6.16;100.00;99692.22;10498543;28;19924;-65
2023/04/12 20:28:40;;;;;;;;;;;;;;;6.28;100.00;99690.69;10497181;28;19932;-64
2023/04/12 20:33:42;;;;;;;;;;;;;;;6.47;100.00;99685.25;10497675;28;20371;-64
2023/04/12 20:38:45;;;;;;;;;;;;;;;6.18;100.00;99689.53;10496615;28;19924;-64
2023/04/12 20:43:47;;;;;;;;;;;;;;;6.34;100.00;99679.94;10497113;28;19924;-64
2023/04/12 20:48:49;;;;;;;;;;;;;;;6.00;100.00;99675.81;10500190;28;20424;-65
2023/04/12 20:53:52;;;;;;;;;;;;;;;5.98;100.00;99665.50;10504037;28;20375;-64
2023/04/12 20:58:54;;;;;;;;;;;;;;;5.87;100.00;99655.69;10502735;28;20357;-64
2023/04/12 21:04:04;;;;;;;;;;;;;;;5.87;100.00;99660.06;10505503;28;19931;-65
2023/04/12 21:09:08;;;;;;;;;;;;;;;5.85;100.00;99644.56;10503672;28;20383;-65
2023/04/12 21:14:10;;;;;;;;;;;;;;;5.71;100.00;99623.72;10502326;28;19932;-64
2023/04/12 21:19:17;;;;;;;;;;;;;;;5.65;100.00;99622.31;10503825;28;20378;-64
2023/04/12 21:24:19;;;;;;;;;;;;;;;5.74;100.00;99613.16;10503019;28;19924;-65
2023/04/12 21:29:21;;;;;;;;;;;;;;;5.70;100.00;99612.50;10504530;28;19924;-64
2023/04/12 21:34:24;;;;;;;;;;;;;;;5.84;100.00;99614.31;10502483;28;19982;-64
2023/04/12 21:39:26;;;;;;;;;;;;;;;5.76;100.00;99595.72;10504245;28;19925;-64
2023/04/12 21:44:29;;;;;;;;;;;;;;;5.79;100.00;99585.16;10501885;28;19929;-64
2023/04/12 21:49:33;;;;;;;;;;;;;;;5.93;100.00;99568.78;10502850;28;19931;-64
2023/04/12 21:54:35;;;;;;;;;;;;;;;6.00;100.00;99570.13;10501055;28;19924;-64
2023/04/12 21:59:40;;;;;;;;;;;;;;;5.78;100.00;99567.88;10500640;28;19925;-64
2023/04/12 22:04:42;;;;;;;;;;;;;;;5.85;100.00;99569.22;10502213;28;19938;-64
2023/04/12 22:09:45;;;;;;;;;;;;;;;5.87;100.00;99543.16;10502035;28;19924;-64
2023/04/12 22:14:48;;;;;;;;;;;;;;;5.88;100.00;99540.44;10502697;28;19925;-64
2023/04/12 22:19:53;;;;;;;;;;;;;;;5.93;100.00;99548.84;10502418;28;19971;-64
2023/04/12 22:24:56;;;;;;;;;;;;;;;6.10;100.00;99532.28;10499937;28;19924;-64
2023/04/12 22:29:59;;;;;;;;;;;;;;;6.14;100.00;99518.19;10501608;28;20265;-64
2023/04/12 22:35:02;;;;;;;;;;;;;;;6.09;100.00;99520.22;10501884;28;19932;-64
2023/04/12 22:40:12;;;;;;;;;;;;;;;6.19;100.00;99524.88;10500790;28;19974;-64
2023/04/12 22:45:15;;;;;;;;;;;;;;;6.16;100.00;99520.69;10499761;28;19924;-64
2023/04/12 22:50:18;;;;;;;;;;;;;;;6.48;100.00;99510.94;10499475;28;20279;-65
2023/04/12 22:55:21;;;;;;;;;;;;;;;6.42;100.00;99497.47;10499676;28;19932;-64
2023/04/12 23:00:24;;;;;;;;;;;;;;;6.35;100.00;99478.00;10500441;28;19930;-64
2023/04/12 23:05:26;;;;;;;;;;;;;;;6.39;100.00;99462.13;10498077;28;20371;-64
2023/04/12 23:10:28;;;;;;;;;;;;;;;6.51;100.00;99450.97;10499537;28;20428;-65
2023/04/12 23:15:32;;;;;;;;;;;;;;;6.48;100.00;99432.94;10499690;22;19932;-66
2023/04/12 23:20:35;;;;;;;;;;;;;;;6.68;100.00;99433.47;10457397;28;20337;-66
2023/04/12 23:25:37;;;;;;;;;;;;;;;6.70;98.25;99421.19;10456696;28;20334;-66
2023/04/12 23:30:41;;;;;;;;;;;;;;;6.60;100.00;99420.13;10457882;28;20395;-66
2023/04/12 23:35:44;;;;;;;;;;;;;;;6.60;100.00;99422.72;10456039;28;20398;-66
2023/04/12 23:40:49;;;;;;;;;;;;;;;6.46;100.00;99427.00;10457419;28;19925;-67
2023/04/12 23:45:52;;;;;;;;;;;;;;;6.68;100.00;99420.47;10457625;28;19928;-66
2023/04/12 23:50:54;;;;;;;;;;;;;;;6.54;100.00;99412.69;10456677;28;20007;-67
2023/04/12 23:55:57;;;;;;;;;;;;;;;6.55;96.94;99403.97;10455309;28;20553;-66
